createdAt,value
2019-01-20T00:00:29.610Z,639.6
2019-01-20T00:01:32.097Z,639.2
2019-01-20T00:02:34.265Z,639.6
2019-01-20T00:03:36.694Z,639.9
2019-01-20T00:04:39.122Z,639.5
2019-01-20T00:05:41.554Z,639.4
2019-01-20T00:06:43.971Z,639.4
2019-01-20T00:07:46.138Z,639.8
2019-01-20T00:08:48.572Z,639.3
2019-01-20T00:09:50.739Z,639.5
2019-01-20T00:10:53.175Z,639.7
2019-01-20T00:11:55.343Z,640
2019-01-20T00:12:57.781Z,639.9
2019-01-20T00:13:59.964Z,639.8
2019-01-20T00:15:02.433Z,639.7
2019-01-20T00:16:04.314Z,640
2019-01-20T00:17:06.744Z,639.9
2019-01-20T00:18:09.190Z,640.1
2019-01-20T00:19:11.621Z,640.5
2019-01-20T00:20:13.996Z,640.4
2019-01-20T00:21:16.458Z,640
2019-01-20T00:22:18.641Z,640.4
2019-01-20T00:23:20.780Z,640
2019-01-20T00:24:22.915Z,640.1
2019-01-20T00:25:25.347Z,640.3
2019-01-20T00:26:27.793Z,640
2019-01-20T00:27:29.697Z,639.6
2019-01-20T00:28:32.135Z,639.8
2019-01-20T00:29:34.308Z,639.8
2019-01-20T00:30:36.438Z,639.9
2019-01-20T00:31:38.595Z,639.7
2019-01-20T00:32:41.028Z,639.9
2019-01-20T00:33:43.185Z,639.7
2019-01-20T00:34:45.620Z,639.9
2019-01-20T00:35:47.791Z,640.1
2019-01-20T00:36:49.957Z,639.8
2019-01-20T00:37:52.099Z,639.7
2019-01-20T00:38:54.238Z,639.5
2019-01-20T00:39:56.395Z,639.4
2019-01-20T00:40:58.544Z,640.1
2019-01-20T00:42:00.715Z,639.5
2019-01-20T00:43:02.889Z,639.7
2019-01-20T00:44:05.046Z,639.8
2019-01-20T00:45:07.474Z,640
2019-01-20T00:46:09.628Z,640.2
2019-01-20T00:47:11.793Z,639.9
2019-01-20T00:48:13.957Z,640.2
2019-01-20T00:49:16.126Z,640.3
2019-01-20T00:50:18.553Z,640.2
2019-01-20T00:51:20.713Z,640.4
2019-01-20T00:52:22.834Z,640.5
2019-01-20T00:53:25.036Z,640.8
2019-01-20T00:54:27.474Z,640.5
2019-01-20T00:55:29.610Z,640.9
2019-01-20T00:56:31.774Z,640.7
2019-01-20T00:57:33.895Z,640.9
2019-01-20T00:58:36.055Z,640.7
2019-01-20T00:59:38.224Z,640.8
2019-01-20T01:00:40.383Z,640.7
2019-01-20T01:01:42.803Z,640.5
2019-01-20T01:02:45.243Z,640.2
2019-01-20T01:03:47.674Z,640.6
2019-01-20T01:04:49.840Z,641
2019-01-20T01:05:51.979Z,640.4
2019-01-20T01:06:54.124Z,640.7
2019-01-20T01:07:56.263Z,640.7
2019-01-20T01:08:58.706Z,640.7
2019-01-20T01:10:01.135Z,640.9
2019-01-20T01:11:03.274Z,640.4
2019-01-20T01:12:05.160Z,640.4
2019-01-20T01:13:07.620Z,640.2
2019-01-20T01:14:10.043Z,640.4
2019-01-20T01:15:12.218Z,640.1
2019-01-20T01:16:14.363Z,640.6
2019-01-20T01:17:16.785Z,640.3
2019-01-20T01:18:18.945Z,640.4
2019-01-20T01:19:21.385Z,640.5
2019-01-20T01:20:23.542Z,640.2
2019-01-20T01:21:25.701Z,640.4
2019-01-20T01:22:27.865Z,640.4
2019-01-20T01:23:30.300Z,640.3
2019-01-20T01:24:32.729Z,640.2
2019-01-20T01:25:34.892Z,640.2
2019-01-20T01:26:38.840Z,640
2019-01-20T01:27:40.995Z,640.2
2019-01-20T01:28:43.412Z,640.1
2019-01-20T01:29:45.835Z,640.3
2019-01-20T01:30:48.263Z,640.4
2019-01-20T01:31:50.135Z,640.4
2019-01-20T01:32:52.622Z,640.5
2019-01-20T01:33:54.762Z,639.9
2019-01-20T01:34:56.903Z,640
2019-01-20T01:35:59.050Z,640
2019-01-20T01:37:01.191Z,640
2019-01-20T01:38:03.360Z,640.1
2019-01-20T01:39:05.814Z,639.9
2019-01-20T01:40:08.240Z,639.9
2019-01-20T01:41:10.391Z,640
2019-01-20T01:42:12.826Z,639.7
2019-01-20T01:43:15.249Z,639.8
2019-01-20T01:44:17.680Z,639.9
2019-01-20T01:45:20.122Z,639.7
2019-01-20T01:46:22.555Z,640.1
2019-01-20T01:47:24.973Z,640.1
2019-01-20T01:48:27.394Z,640.2
2019-01-20T01:49:29.544Z,640.1
2019-01-20T01:50:31.971Z,640
2019-01-20T01:51:34.097Z,639.9
2019-01-20T01:52:36.528Z,640.2
2019-01-20T01:53:38.957Z,640.3
2019-01-20T01:54:41.380Z,640.4
2019-01-20T01:55:43.526Z,640.6
2019-01-20T01:56:45.956Z,640.2
2019-01-20T01:57:48.121Z,640.4
2019-01-20T01:58:50.265Z,640.6
2019-01-20T01:59:52.685Z,640.2
2019-01-20T02:00:55.124Z,640.5
2019-01-20T02:01:57.547Z,640.5
2019-01-20T02:02:59.964Z,640.5
2019-01-20T02:04:02.125Z,640.5
2019-01-20T02:05:04.263Z,640.2
2019-01-20T02:06:06.690Z,640.7
2019-01-20T02:07:08.833Z,640.5
2019-01-20T02:08:11.259Z,640.4
2019-01-20T02:09:13.426Z,640.5
2019-01-20T02:10:15.583Z,640.7
2019-01-20T02:11:17.728Z,641.1
2019-01-20T02:12:19.865Z,640.6
2019-01-20T02:13:22.283Z,640.8
2019-01-20T02:14:24.714Z,640.8
2019-01-20T02:15:26.875Z,640.8
2019-01-20T02:16:29.307Z,640.5
2019-01-20T02:17:31.475Z,640.6
2019-01-20T02:18:33.627Z,641
2019-01-20T02:19:36.054Z,640.9
2019-01-20T02:20:38.474Z,640.7
2019-01-20T02:21:40.902Z,640.7
2019-01-20T02:22:42.754Z,640.7
2019-01-20T02:23:44.895Z,641
2019-01-20T02:24:47.055Z,641
2019-01-20T02:25:49.479Z,641.1
2019-01-20T02:26:51.366Z,641.3
2019-01-20T02:27:53.524Z,641.1
2019-01-20T02:28:55.395Z,641.4
2019-01-20T02:29:57.833Z,641.1
2019-01-20T02:31:00.264Z,641.2
2019-01-20T02:32:02.692Z,641
2019-01-20T02:33:04.855Z,641.3
2019-01-20T02:34:06.756Z,641.2
2019-01-20T02:35:09.202Z,641.3
2019-01-20T02:36:11.665Z,641.3
2019-01-20T02:37:13.861Z,641.2
2019-01-20T02:38:16.027Z,641.2
2019-01-20T02:39:18.459Z,641.5
2019-01-20T02:40:20.876Z,641.4
2019-01-20T02:41:23.296Z,641.1
2019-01-20T02:42:25.455Z,641.1
2019-01-20T02:43:27.888Z,641.2
2019-01-20T02:44:30.021Z,641
2019-01-20T02:45:31.916Z,641.3
2019-01-20T02:46:34.340Z,641.3
2019-01-20T02:47:36.754Z,641.1
2019-01-20T02:48:39.179Z,641.1
2019-01-20T02:49:41.610Z,641.2
2019-01-20T02:50:44.031Z,641.3
2019-01-20T02:51:46.232Z,641.2
2019-01-20T02:52:48.665Z,641.4
2019-01-20T02:53:50.822Z,641.6
2019-01-20T02:54:53.238Z,641.6
2019-01-20T02:55:55.655Z,641.9
2019-01-20T02:56:57.793Z,642.2
2019-01-20T02:58:01.941Z,642.3
2019-01-20T02:59:04.447Z,642.3
2019-01-20T03:00:06.602Z,642.4
2019-01-20T03:01:09.034Z,642.2
2019-01-20T03:02:11.195Z,642.2
2019-01-20T03:03:13.634Z,642.3
2019-01-20T03:04:16.053Z,642.4
2019-01-20T03:05:18.665Z,641.9
2019-01-20T03:06:21.091Z,642
2019-01-20T03:07:23.231Z,641.9
2019-01-20T03:08:25.670Z,642
2019-01-20T03:09:28.086Z,641.6
2019-01-20T03:10:29.681Z,641.4
2019-01-20T03:11:31.557Z,641.6
2019-01-20T03:12:33.715Z,641.4
2019-01-20T03:13:35.863Z,641.4
2019-01-20T03:14:38.031Z,641.3
2019-01-20T03:15:40.183Z,641.4
2019-01-20T03:16:42.611Z,641.6
2019-01-20T03:17:44.485Z,641.8
2019-01-20T03:18:46.911Z,641.8
2019-01-20T03:19:48.788Z,642.2
2019-01-20T03:20:51.215Z,642.3
2019-01-20T03:21:53.089Z,641.9
2019-01-20T03:22:55.230Z,641.9
2019-01-20T03:23:57.122Z,641.9
2019-01-20T03:24:59.553Z,642.1
2019-01-20T03:26:01.971Z,642.4
2019-01-20T03:27:03.887Z,642.6
2019-01-20T03:28:06.315Z,642.4
2019-01-20T03:29:08.507Z,642.5
2019-01-20T03:30:10.954Z,642.7
2019-01-20T03:31:13.373Z,642.8
2019-01-20T03:32:15.796Z,643
2019-01-20T03:33:18.229Z,642.5
2019-01-20T03:34:20.650Z,643.1
2019-01-20T03:35:23.083Z,643.1
2019-01-20T03:36:25.235Z,643
2019-01-20T03:37:27.119Z,643
2019-01-20T03:38:29.559Z,643.1
2019-01-20T03:39:31.983Z,643.4
2019-01-20T03:40:34.142Z,643.3
2019-01-20T03:41:36.312Z,642.9
2019-01-20T03:42:38.464Z,643
2019-01-20T03:43:40.956Z,643.1
2019-01-20T03:44:43.375Z,642.9
2019-01-20T03:45:45.809Z,642.7
2019-01-20T03:46:49.925Z,642.9
2019-01-20T03:47:52.077Z,642.7
2019-01-20T03:48:54.509Z,642.4
2019-01-20T03:49:56.939Z,642.5
2019-01-20T03:50:59.093Z,643
2019-01-20T03:52:01.518Z,642.7
2019-01-20T03:53:03.694Z,642.8
2019-01-20T03:54:05.843Z,642.5
2019-01-20T03:55:07.735Z,642.7
2019-01-20T03:56:09.634Z,642.8
2019-01-20T03:57:11.786Z,642.6
2019-01-20T03:58:14.214Z,643.1
2019-01-20T03:59:16.367Z,643.1
2019-01-20T04:00:18.237Z,643.1
2019-01-20T04:01:20.655Z,642.8
2019-01-20T04:02:22.823Z,643
2019-01-20T04:03:25.311Z,643
2019-01-20T04:04:27.175Z,643
2019-01-20T04:05:29.359Z,643
2019-01-20T04:06:31.791Z,642.5
2019-01-20T04:07:33.953Z,643
2019-01-20T04:08:36.096Z,642.8
2019-01-20T04:09:38.512Z,642.7
2019-01-20T04:10:40.925Z,642.9
2019-01-20T04:11:43.352Z,642.4
2019-01-20T04:12:45.513Z,642
2019-01-20T04:13:47.946Z,642.6
2019-01-20T04:14:50.364Z,642.6
2019-01-20T04:15:52.803Z,642.1
2019-01-20T04:16:55.226Z,642.6
2019-01-20T04:17:57.366Z,642.3
2019-01-20T04:18:59.515Z,642.4
2019-01-20T04:20:01.959Z,642.7
2019-01-20T04:21:04.383Z,642.4
2019-01-20T04:22:06.547Z,642.6
2019-01-20T04:23:08.973Z,642.6
2019-01-20T04:24:11.141Z,642.5
2019-01-20T04:25:13.605Z,642.3
2019-01-20T04:26:15.779Z,642.2
2019-01-20T04:27:18.201Z,642.1
2019-01-20T04:28:20.053Z,642.4
2019-01-20T04:29:22.463Z,642.1
2019-01-20T04:30:24.925Z,642.3
2019-01-20T04:31:27.375Z,642.2
2019-01-20T04:32:29.247Z,642.1
2019-01-20T04:33:31.130Z,642.1
2019-01-20T04:34:33.273Z,641.8
2019-01-20T04:35:35.401Z,642
2019-01-20T04:36:37.826Z,642.3
2019-01-20T04:37:39.984Z,642.5
2019-01-20T04:38:42.451Z,642
2019-01-20T04:39:44.875Z,642.6
2019-01-20T04:40:46.765Z,642.5
2019-01-20T04:41:49.179Z,642.7
2019-01-20T04:42:51.917Z,642.6
2019-01-20T04:43:53.839Z,642.4
2019-01-20T04:44:56.275Z,642.8
2019-01-20T04:45:58.705Z,642.7
2019-01-20T04:47:00.865Z,643
2019-01-20T04:48:03.319Z,643.1
2019-01-20T04:49:05.466Z,643
2019-01-20T04:50:07.606Z,642.9
2019-01-20T04:51:10.035Z,643.1
2019-01-20T04:52:12.184Z,642.9
2019-01-20T04:53:14.072Z,643
2019-01-20T04:54:16.505Z,642.9
2019-01-20T04:55:18.643Z,643
2019-01-20T04:56:20.789Z,643.4
2019-01-20T04:57:22.952Z,643.5
2019-01-20T04:58:26.066Z,643.2
2019-01-20T04:59:28.491Z,643.2
2019-01-20T05:00:30.640Z,643.1
2019-01-20T05:01:33.061Z,643.3
2019-01-20T05:02:35.481Z,643.3
2019-01-20T05:03:37.665Z,643
2019-01-20T05:04:40.129Z,643
2019-01-20T05:05:42.561Z,642.9
2019-01-20T05:06:44.711Z,643.2
2019-01-20T05:07:47.140Z,642.9
2019-01-20T05:08:49.291Z,642.6
2019-01-20T05:09:51.458Z,642.7
2019-01-20T05:10:53.878Z,642.6
2019-01-20T05:11:56.301Z,642.5
2019-01-20T05:12:58.734Z,642.2
2019-01-20T05:14:01.173Z,642.5
2019-01-20T05:15:03.326Z,642.3
2019-01-20T05:16:05.781Z,642.4
2019-01-20T05:17:08.208Z,642.3
2019-01-20T05:18:10.635Z,642.5
2019-01-20T05:19:12.791Z,642.2
2019-01-20T05:20:15.218Z,642.3
2019-01-20T05:21:17.655Z,642.2
2019-01-20T05:22:20.079Z,642
2019-01-20T05:23:22.225Z,641.4
2019-01-20T05:24:24.376Z,641.9
2019-01-20T05:25:26.801Z,641.9
2019-01-20T05:26:28.945Z,642
2019-01-20T05:27:31.373Z,642
2019-01-20T05:28:33.806Z,642
2019-01-20T05:29:36.235Z,642.1
2019-01-20T05:30:38.117Z,642
2019-01-20T05:31:40.563Z,642
2019-01-20T05:32:42.997Z,642
2019-01-20T05:33:45.435Z,642.1
2019-01-20T05:34:47.585Z,641.8
2019-01-20T05:35:49.743Z,642.3
2019-01-20T05:36:52.160Z,641.9
2019-01-20T05:37:54.582Z,641.9
2019-01-20T05:38:57.007Z,641.5
2019-01-20T05:39:59.156Z,642.1
2019-01-20T05:41:01.317Z,641.9
2019-01-20T05:42:03.464Z,642.2
2019-01-20T05:43:05.897Z,641.7
2019-01-20T05:44:08.336Z,642.1
2019-01-20T05:45:10.463Z,641.7
2019-01-20T05:46:12.895Z,642.3
2019-01-20T05:47:15.322Z,642.5
2019-01-20T05:48:17.746Z,641.9
2019-01-20T05:49:20.169Z,641.5
2019-01-20T05:50:22.305Z,642
2019-01-20T05:51:24.738Z,641.8
2019-01-20T05:52:27.165Z,641.9
2019-01-20T05:53:29.609Z,641.8
2019-01-20T05:54:31.475Z,641.7
2019-01-20T05:55:33.900Z,642
2019-01-20T05:56:36.323Z,642.1
2019-01-20T05:57:38.475Z,642
2019-01-20T05:58:40.631Z,641.8
2019-01-20T05:59:42.530Z,641.5
2019-01-20T06:00:44.946Z,641.6
2019-01-20T06:01:47.371Z,641.7
2019-01-20T06:02:49.234Z,641.7
2019-01-20T06:03:51.108Z,641.5
2019-01-20T06:04:53.531Z,641.9
2019-01-20T06:05:55.965Z,641.7
2019-01-20T06:06:58.106Z,641.6
2019-01-20T06:08:00.276Z,641.2
2019-01-20T06:09:02.711Z,641.2
2019-01-20T06:10:04.855Z,641.3
2019-01-20T06:11:07.003Z,641.5
2019-01-20T06:12:09.426Z,641.2
2019-01-20T06:13:11.855Z,641.4
2019-01-20T06:14:14.281Z,641
2019-01-20T06:15:16.453Z,641.3
2019-01-20T06:16:18.957Z,641.2
2019-01-20T06:17:21.387Z,641.3
2019-01-20T06:18:23.264Z,641.1
2019-01-20T06:19:25.727Z,641.1
2019-01-20T06:20:27.868Z,641.2
2019-01-20T06:21:30.036Z,641.3
2019-01-20T06:22:33.572Z,641.5
2019-01-20T06:23:36.003Z,641.2
2019-01-20T06:24:38.172Z,641.4
2019-01-20T06:25:40.332Z,641.5
2019-01-20T06:26:42.768Z,641.2
2019-01-20T06:27:44.957Z,641.3
2019-01-20T06:28:47.093Z,641.2
2019-01-20T06:29:49.525Z,641.6
2019-01-20T06:30:51.676Z,641.1
2019-01-20T06:31:53.835Z,641.2
2019-01-20T06:32:55.965Z,641
2019-01-20T06:33:57.854Z,641.2
2019-01-20T06:35:00.281Z,641.1
2019-01-20T06:36:02.449Z,640.5
2019-01-20T06:37:04.866Z,640.6
2019-01-20T06:38:06.782Z,640.6
2019-01-20T06:39:09.001Z,640.6
2019-01-20T06:40:11.435Z,640.1
2019-01-20T06:41:13.865Z,640.1
2019-01-20T06:42:16.028Z,640.1
2019-01-20T06:43:17.896Z,640.1
2019-01-20T06:44:20.331Z,639.8
2019-01-20T06:45:22.494Z,640.6
2019-01-20T06:46:24.924Z,640.3
2019-01-20T06:47:27.344Z,640
2019-01-20T06:48:29.497Z,639.8
2019-01-20T06:49:31.131Z,639.5
2019-01-20T06:50:33.005Z,639.6
2019-01-20T06:51:35.192Z,639.3
2019-01-20T06:52:37.615Z,639.2
2019-01-20T06:53:40.051Z,639.4
2019-01-20T06:54:42.502Z,638.8
2019-01-20T06:55:44.938Z,639.2
2019-01-20T06:56:47.380Z,638.9
2019-01-20T06:57:49.801Z,639.3
2019-01-20T06:58:52.254Z,639.2
2019-01-20T06:59:54.664Z,639
2019-01-20T07:00:57.083Z,638.4
2019-01-20T07:01:59.251Z,638.5
2019-01-20T07:03:01.704Z,638.3
2019-01-20T07:04:04.122Z,638.2
2019-01-20T07:05:06.280Z,638
2019-01-20T07:06:08.443Z,637.7
2019-01-20T07:07:10.865Z,637.9
2019-01-20T07:08:13.302Z,637.6
2019-01-20T07:09:15.198Z,637.2
2019-01-20T07:10:17.804Z,637.4
2019-01-20T07:11:20.234Z,637.6
2019-01-20T07:12:22.675Z,637.2
2019-01-20T07:13:25.107Z,637.3
2019-01-20T07:14:27.304Z,637.5
2019-01-20T07:15:29.249Z,637.4
2019-01-20T07:16:31.154Z,637.4
2019-01-20T07:17:33.315Z,637
2019-01-20T07:18:35.475Z,636.9
2019-01-20T07:19:37.624Z,636.9
2019-01-20T07:20:39.776Z,636.9
2019-01-20T07:21:41.682Z,636.8
2019-01-20T07:22:44.116Z,636.8
2019-01-20T07:23:46.248Z,636.6
2019-01-20T07:24:48.680Z,636.5
2019-01-20T07:25:51.106Z,636.7
2019-01-20T07:26:53.527Z,636.2
2019-01-20T07:27:55.409Z,636
2019-01-20T07:28:58.047Z,636.3
2019-01-20T07:30:00.496Z,636.1
2019-01-20T07:31:02.662Z,636
2019-01-20T07:32:05.083Z,636.2
2019-01-20T07:33:07.517Z,636
2019-01-20T07:34:09.664Z,636.2
2019-01-20T07:35:12.094Z,635.9
2019-01-20T07:36:14.258Z,635.6
2019-01-20T07:37:16.731Z,635.6
2019-01-20T07:38:19.176Z,635.4
2019-01-20T07:39:21.765Z,635.6
2019-01-20T07:40:24.324Z,635.3
2019-01-20T07:41:26.750Z,635.4
2019-01-20T07:42:29.174Z,635.3
2019-01-20T07:43:31.630Z,635.4
2019-01-20T07:44:34.070Z,635.2
2019-01-20T07:45:36.503Z,635
2019-01-20T07:46:38.645Z,635.4
2019-01-20T07:47:40.789Z,635.3
2019-01-20T07:48:42.973Z,635.2
2019-01-20T07:49:45.137Z,635
2019-01-20T07:50:49.239Z,635.3
2019-01-20T07:51:51.385Z,635.5
2019-01-20T07:52:53.834Z,634.8
2019-01-20T07:53:55.992Z,634.9
2019-01-20T07:54:58.424Z,634.6
2019-01-20T07:56:00.590Z,634.7
2019-01-20T07:57:03.022Z,634.6
2019-01-20T07:58:05.448Z,634.6
2019-01-20T07:59:07.324Z,634.7
2019-01-20T08:00:09.774Z,634.3
2019-01-20T08:01:12.204Z,634.5
2019-01-20T08:02:14.370Z,634.4
2019-01-20T08:03:16.804Z,634.4
2019-01-20T08:04:19.264Z,634.1
2019-01-20T08:05:21.713Z,634.3
2019-01-20T08:06:23.881Z,634.2
2019-01-20T08:07:26.300Z,634.3
2019-01-20T08:08:28.188Z,634.1
2019-01-20T08:09:30.619Z,633.8
2019-01-20T08:10:33.035Z,633.6
2019-01-20T08:11:35.199Z,633.4
2019-01-20T08:12:37.700Z,633.7
2019-01-20T08:13:40.145Z,633.7
2019-01-20T08:14:42.587Z,633.4
2019-01-20T08:15:45.015Z,633.7
2019-01-20T08:16:47.456Z,633.5
2019-01-20T08:17:49.925Z,633.2
2019-01-20T08:18:52.360Z,633.3
2019-01-20T08:19:54.508Z,633.3
2019-01-20T08:20:56.678Z,633.1
2019-01-20T08:21:59.133Z,632.9
2019-01-20T08:23:03.198Z,632.7
2019-01-20T08:24:05.134Z,632.6
2019-01-20T08:25:07.566Z,632.9
2019-01-20T08:26:10.000Z,632.8
2019-01-20T08:27:12.160Z,632.4
2019-01-20T08:28:14.340Z,632.1
2019-01-20T08:29:16.774Z,632.5
2019-01-20T08:30:18.951Z,632.3
2019-01-20T08:31:20.817Z,632.3
2019-01-20T08:32:23.286Z,632.5
2019-01-20T08:33:25.438Z,632.2
2019-01-20T08:34:27.872Z,632.3
2019-01-20T08:35:30.072Z,631.7
2019-01-20T08:36:32.253Z,632
2019-01-20T08:37:36.056Z,631.7
2019-01-20T08:38:38.484Z,631.7
2019-01-20T08:39:40.488Z,631.9
2019-01-20T08:40:42.656Z,632
2019-01-20T08:41:45.095Z,631.8
2019-01-20T08:43:02.185Z,632.2
2019-01-20T08:44:04.326Z,631.9
2019-01-20T08:45:06.796Z,631.9
2019-01-20T08:46:09.237Z,632
2019-01-20T08:47:11.691Z,631.4
2019-01-20T08:48:13.844Z,631.2
2019-01-20T08:49:16.280Z,631.5
2019-01-20T08:50:18.164Z,631.2
2019-01-20T08:51:20.404Z,630.6
2019-01-20T08:52:22.844Z,630.5
2019-01-20T08:53:25.276Z,631
2019-01-20T08:54:27.739Z,630.2
2019-01-20T08:55:29.937Z,630.7
2019-01-20T08:56:32.102Z,630.5
2019-01-20T08:57:34.535Z,630.5
2019-01-20T08:58:36.714Z,630.2
2019-01-20T08:59:39.186Z,630.4
2019-01-20T09:00:42.746Z,630.7
2019-01-20T09:01:44.624Z,630.3
2019-01-20T09:02:47.067Z,630.3
2019-01-20T09:03:49.231Z,630.4
2019-01-20T09:04:51.392Z,629.9
2019-01-20T09:05:53.804Z,630
2019-01-20T09:06:56.293Z,630.1
2019-01-20T09:07:58.448Z,630
2019-01-20T09:09:00.610Z,630.2
2019-01-20T09:10:02.775Z,630.7
2019-01-20T09:11:04.944Z,630.3
2019-01-20T09:12:07.379Z,630.1
2019-01-20T09:13:09.563Z,629.9
2019-01-20T09:14:12.011Z,629.9
2019-01-20T09:15:14.446Z,629.9
2019-01-20T09:16:16.874Z,629.8
2019-01-20T09:17:19.309Z,629.4
2019-01-20T09:18:21.478Z,629.6
2019-01-20T09:19:24.066Z,629.1
2019-01-20T09:20:26.223Z,629.4
2019-01-20T09:21:28.648Z,629
2019-01-20T09:22:30.783Z,628.8
2019-01-20T09:23:32.912Z,629
2019-01-20T09:24:35.066Z,629
2019-01-20T09:25:37.229Z,628.6
2019-01-20T09:26:39.087Z,628.3
2019-01-20T09:27:41.226Z,628.5
2019-01-20T09:28:43.385Z,628.3
2019-01-20T09:29:45.272Z,628.2
2019-01-20T09:30:47.468Z,628.2
2019-01-20T09:31:49.625Z,628.3
2019-01-20T09:32:52.056Z,628.2
2019-01-20T09:33:54.193Z,628.3
2019-01-20T09:34:56.346Z,628.3
2019-01-20T09:35:58.777Z,628.2
2019-01-20T09:37:01.204Z,628
2019-01-20T09:38:03.353Z,627.6
2019-01-20T09:39:05.775Z,627.3
2019-01-20T09:40:07.934Z,627.4
2019-01-20T09:41:10.366Z,627.4
2019-01-20T09:42:12.791Z,627.2
2019-01-20T09:43:14.947Z,627.6
2019-01-20T09:44:17.386Z,627.1
2019-01-20T09:45:19.813Z,627.2
2019-01-20T09:46:22.237Z,627.1
2019-01-20T09:47:24.657Z,627.5
2019-01-20T09:48:27.102Z,627.5
2019-01-20T09:49:29.539Z,627.4
2019-01-20T09:50:31.743Z,626.7
2019-01-20T09:51:33.913Z,626.9
2019-01-20T09:52:36.075Z,626.8
2019-01-20T09:53:38.505Z,626.8
2019-01-20T09:54:40.653Z,627
2019-01-20T09:55:42.795Z,627
2019-01-20T09:56:44.964Z,626.6
2019-01-20T09:57:46.867Z,626.8
2019-01-20T09:58:49.295Z,627
2019-01-20T09:59:51.754Z,627.2
2019-01-20T10:00:53.923Z,626.8
2019-01-20T10:01:55.820Z,627.2
2019-01-20T10:02:58.256Z,627.6
2019-01-20T10:04:00.408Z,627.3
2019-01-20T10:05:02.849Z,627.6
2019-01-20T10:06:05.276Z,627.2
2019-01-20T10:07:07.704Z,627.3
2019-01-20T10:08:09.854Z,627.5
2019-01-20T10:09:12.020Z,627.4
2019-01-20T10:10:14.181Z,627.1
2019-01-20T10:11:16.637Z,627.3
2019-01-20T10:12:19.073Z,627
2019-01-20T10:13:21.511Z,626.9
2019-01-20T10:14:23.943Z,627
2019-01-20T10:15:26.383Z,627.3
2019-01-20T10:16:28.816Z,627.4
2019-01-20T10:17:31.255Z,627.4
2019-01-20T10:18:33.405Z,627.2
2019-01-20T10:19:35.275Z,627.2
2019-01-20T10:20:37.712Z,627.3
2019-01-20T10:21:39.873Z,627.1
2019-01-20T10:22:42.333Z,626.9
2019-01-20T10:23:44.775Z,627.2
2019-01-20T10:24:48.773Z,627
2019-01-20T10:25:50.917Z,627.1
2019-01-20T10:26:53.082Z,626.7
2019-01-20T10:27:55.509Z,626.8
2019-01-20T10:28:57.936Z,627.1
2019-01-20T10:30:00.181Z,626.8
2019-01-20T10:31:02.595Z,626.8
2019-01-20T10:32:04.005Z,626.8
2019-01-20T10:33:06.434Z,626.7
2019-01-20T10:34:08.883Z,626.9
2019-01-20T10:35:10.798Z,627.2
2019-01-20T10:36:12.955Z,627
2019-01-20T10:37:15.397Z,626.9
2019-01-20T10:38:17.557Z,626.8
2019-01-20T10:39:19.999Z,627.2
2019-01-20T10:40:22.462Z,627
2019-01-20T10:41:24.897Z,627.4
2019-01-20T10:42:27.337Z,627
2019-01-20T10:43:29.543Z,627.6
2019-01-20T10:44:31.691Z,627.4
2019-01-20T10:45:33.887Z,627.9
2019-01-20T10:46:36.371Z,627.7
2019-01-20T10:47:38.793Z,627.7
2019-01-20T10:48:40.667Z,627.7
2019-01-20T10:49:42.827Z,627.7
2019-01-20T10:50:45.298Z,627.7
2019-01-20T10:51:47.173Z,627.6
2019-01-20T10:52:49.355Z,627.8
2019-01-20T10:54:56.782Z,627
2019-01-20T10:55:59.226Z,627.4
2019-01-20T10:57:01.650Z,627.4
2019-01-20T10:58:04.115Z,627.3
2019-01-20T10:59:07.744Z,627.5
2019-01-20T11:00:10.185Z,627.5
2019-01-20T11:01:12.623Z,627.1
2019-01-20T11:02:15.066Z,627.4
2019-01-20T11:03:17.495Z,627.4
2019-01-20T11:04:19.653Z,627
2019-01-20T11:06:26.510Z,627.5
2019-01-20T11:07:28.957Z,627.1
2019-01-20T11:08:31.395Z,627
2019-01-20T11:09:33.825Z,627.4
2019-01-20T11:10:36.265Z,627
2019-01-20T11:11:38.690Z,626.5
2019-01-20T11:12:42.525Z,626.8
2019-01-20T11:13:44.686Z,626.8
2019-01-20T11:14:47.116Z,626.4
2019-01-20T11:15:49.544Z,626.6
2019-01-20T11:16:51.505Z,626.9
2019-01-20T11:17:54.941Z,626.7
2019-01-20T11:18:56.834Z,626.3
2019-01-20T11:19:59.279Z,626.2
2019-01-20T11:21:01.755Z,626.7
2019-01-20T11:22:03.910Z,626.3
2019-01-20T11:23:05.838Z,626.1
2019-01-20T11:24:08.266Z,626.4
2019-01-20T11:25:10.695Z,626.2
2019-01-20T11:26:12.871Z,626.3
2019-01-20T11:27:15.320Z,626.1
2019-01-20T11:28:17.765Z,626.2
2019-01-20T11:29:19.914Z,625.9
2019-01-20T11:30:22.335Z,626
2019-01-20T11:31:24.771Z,626.3
2019-01-20T11:32:26.922Z,626
2019-01-20T11:33:29.366Z,626.1
2019-01-20T11:34:31.543Z,626
2019-01-20T11:35:33.991Z,626.5
2019-01-20T11:36:35.867Z,626.6
2019-01-20T11:37:37.757Z,626.3
2019-01-20T11:38:40.188Z,626.6
2019-01-20T11:39:42.361Z,626.7
2019-01-20T11:40:44.525Z,626.6
2019-01-20T11:41:46.702Z,626.3
2019-01-20T11:42:49.140Z,626.5
2019-01-20T11:43:51.567Z,626.7
2019-01-20T11:44:53.989Z,626.6
2019-01-20T11:45:56.413Z,626.2
2019-01-20T11:46:58.836Z,626.6
2019-01-20T11:48:01.263Z,626.7
2019-01-20T11:49:03.695Z,626.9
2019-01-20T11:50:05.593Z,626.3
2019-01-20T11:51:07.725Z,626.4
2019-01-20T11:52:10.165Z,626.6
2019-01-20T11:53:12.327Z,626.3
2019-01-20T11:54:14.477Z,626
2019-01-20T11:55:16.623Z,626.2
2019-01-20T11:56:18.814Z,626.6
2019-01-20T11:57:21.255Z,626.1
2019-01-20T11:58:23.691Z,626.3
2019-01-20T11:59:26.114Z,626.3
2019-01-20T12:00:28.541Z,626.5
2019-01-20T12:01:30.725Z,626.4
2019-01-20T12:02:32.615Z,626.5
2019-01-20T12:03:34.516Z,626.7
2019-01-20T12:04:36.945Z,626.7
2019-01-20T12:05:39.380Z,626.5
2019-01-20T12:06:41.823Z,626.5
2019-01-20T12:07:44.254Z,626.5
2019-01-20T12:08:46.726Z,626.6
2019-01-20T12:09:48.624Z,626.6
2019-01-20T12:10:51.061Z,626.6
2019-01-20T12:11:53.270Z,626.7
2019-01-20T12:12:55.699Z,626.9
2019-01-20T12:13:58.124Z,626.6
2019-01-20T12:14:59.996Z,626.6
2019-01-20T12:16:02.145Z,626.4
2019-01-20T12:17:04.310Z,626.6
2019-01-20T12:18:06.731Z,626.5
2019-01-20T12:19:08.896Z,626.5
2019-01-20T12:20:11.098Z,626.5
2019-01-20T12:21:13.562Z,626.4
2019-01-20T12:22:15.450Z,626.5
2019-01-20T12:23:17.885Z,626.3
2019-01-20T12:24:21.480Z,626.4
2019-01-20T12:25:23.927Z,626.5
2019-01-20T12:26:26.360Z,626.3
2019-01-20T12:27:28.781Z,626.5
2019-01-20T12:28:30.936Z,626.1
2019-01-20T12:29:33.106Z,626.2
2019-01-20T12:30:35.536Z,625.9
2019-01-20T12:31:37.708Z,626.1
2019-01-20T12:32:40.164Z,626.1
2019-01-20T12:33:42.595Z,626.4
2019-01-20T12:34:45.059Z,626.5
2019-01-20T12:35:47.484Z,626
2019-01-20T12:36:49.364Z,626.3
2019-01-20T12:37:51.825Z,626.2
2019-01-20T12:38:53.982Z,626.7
2019-01-20T12:39:56.142Z,626.7
2019-01-20T12:40:57.743Z,626.9
2019-01-20T12:41:59.850Z,626.4
2019-01-20T12:43:02.367Z,626.8
2019-01-20T12:44:04.546Z,626.4
2019-01-20T12:45:06.428Z,626.7
2019-01-20T12:46:08.864Z,626.7
2019-01-20T12:47:11.298Z,626.7
2019-01-20T12:48:13.484Z,626.6
2019-01-20T12:49:15.907Z,626.9
2019-01-20T12:50:18.363Z,626.8
2019-01-20T12:51:20.803Z,627
2019-01-20T12:52:23.255Z,626.7
2019-01-20T12:53:25.445Z,626.9
2019-01-20T12:54:27.914Z,626.9
2019-01-20T12:55:30.363Z,627
2019-01-20T12:56:32.506Z,626.4
2019-01-20T12:57:34.658Z,626.8
2019-01-20T12:58:36.796Z,626.8
2019-01-20T12:59:39.014Z,626.8
2019-01-20T13:00:41.471Z,627
2019-01-20T13:01:43.937Z,626.8
2019-01-20T13:02:46.430Z,626.8
2019-01-20T13:03:48.916Z,626.9
2019-01-20T13:04:50.833Z,626.6
2019-01-20T13:05:53.284Z,626.7
2019-01-20T13:06:55.890Z,626.8
2019-01-20T13:07:58.068Z,626.4
2019-01-20T13:09:00.219Z,626.6
2019-01-20T13:10:02.406Z,626.7
2019-01-20T13:11:04.875Z,626.8
2019-01-20T13:12:06.786Z,626.7
2019-01-20T13:13:08.962Z,626.8
2019-01-20T13:14:11.096Z,626.5
2019-01-20T13:15:13.275Z,626.4
2019-01-20T13:16:15.169Z,626.6
2019-01-20T13:17:17.334Z,626.6
2019-01-20T13:18:19.788Z,626.1
2019-01-20T13:19:26.982Z,626.4
2019-01-20T13:20:29.475Z,626.6
2019-01-20T13:21:31.657Z,626.2
2019-01-20T13:22:33.851Z,626.5
2019-01-20T13:23:36.309Z,626.1
2019-01-20T13:24:38.191Z,626.6
2019-01-20T13:25:40.639Z,626
2019-01-20T13:26:43.105Z,625.6
2019-01-20T13:27:45.288Z,625.6
2019-01-20T13:28:47.471Z,626
2019-01-20T13:29:49.625Z,626.4
2019-01-20T13:30:52.073Z,625.6